createdAt,value
2017-10-06T00:02:58.004Z,52.8
2017-10-06T00:03:59.441Z,52.8
2017-10-06T00:05:01.599Z,52.8
2017-10-06T00:06:03.398Z,52.9
2017-10-06T00:07:04.864Z,52.9
2017-10-06T00:08:06.637Z,52.8
2017-10-06T00:09:08.432Z,52.8
2017-10-06T00:10:10.565Z,52.8
2017-10-06T00:11:12.025Z,52.8
2017-10-06T00:12:14.157Z,52.9
2017-10-06T00:13:16.287Z,52.8
2017-10-06T00:14:18.416Z,52.8
2017-10-06T00:15:20.212Z,53.1
2017-10-06T00:16:22.343Z,52.8
2017-10-06T00:17:24.475Z,52.9
2017-10-06T00:18:26.271Z,52.8
2017-10-06T00:19:27.709Z,52.9
2017-10-06T00:20:29.504Z,52.8
2017-10-06T00:21:31.301Z,52.9
2017-10-06T00:22:33.097Z,52.7
2017-10-06T00:23:35.246Z,52.9
2017-10-06T00:24:36.716Z,52.9
2017-10-06T00:25:38.848Z,53.5
2017-10-06T00:26:40.982Z,52.9
2017-10-06T00:27:42.422Z,52.9
2017-10-06T00:28:44.566Z,52.8
2017-10-06T00:29:46.684Z,52.8
2017-10-06T00:30:48.482Z,52.9
2017-10-06T00:31:50.276Z,52.8
2017-10-06T00:32:52.051Z,52.8
2017-10-06T00:33:53.512Z,52.8
2017-10-06T00:34:55.287Z,52.9
2017-10-06T00:35:57.060Z,52.9
2017-10-06T00:36:58.856Z,52.8
2017-10-06T00:37:59.961Z,52.9
2017-10-06T00:39:01.401Z,52.8
2017-10-06T00:40:02.504Z,52.9
2017-10-06T00:41:04.297Z,52.9
2017-10-06T00:42:06.067Z,52.9
2017-10-06T00:43:07.527Z,53.5
2017-10-06T00:44:09.321Z,52.8
2017-10-06T00:45:11.133Z,52.9
2017-10-06T00:46:12.590Z,52.9
2017-10-06T00:47:14.386Z,52.8
2017-10-06T00:48:16.157Z,52.9
2017-10-06T00:49:17.974Z,52.9
2017-10-06T00:50:19.734Z,53.4
2017-10-06T00:51:21.532Z,52.9
2017-10-06T00:52:23.326Z,52.9
2017-10-06T00:53:25.460Z,52.9
2017-10-06T00:54:27.256Z,52.9
2017-10-06T00:55:28.029Z,52.9
2017-10-06T00:56:29.501Z,52.9
2017-10-06T00:57:31.685Z,52.9
2017-10-06T00:58:33.808Z,52.9
2017-10-06T00:59:35.583Z,53.2
2017-10-06T01:00:37.391Z,52.8
2017-10-06T01:01:38.833Z,53
2017-10-06T01:02:40.961Z,52.9
2017-10-06T01:03:42.735Z,52.9
2017-10-06T01:04:43.851Z,52.8
2017-10-06T01:05:45.310Z,52.9
2017-10-06T01:06:47.439Z,52.9
2017-10-06T01:07:49.214Z,52.9
2017-10-06T01:08:50.351Z,52.8
2017-10-06T01:09:51.811Z,52.9
2017-10-06T01:10:53.967Z,52.8
2017-10-06T01:11:56.084Z,53.4
2017-10-06T01:12:58.213Z,52.9
2017-10-06T01:14:00.342Z,52.9
2017-10-06T01:15:02.138Z,52.8
2017-10-06T01:16:03.580Z,52.8
2017-10-06T01:17:05.355Z,52.8
2017-10-06T01:18:07.482Z,52.8
2017-10-06T01:19:09.284Z,52.9
2017-10-06T01:20:11.078Z,52.9
2017-10-06T01:21:13.208Z,53.4
2017-10-06T01:22:15.339Z,52.8
2017-10-06T01:23:16.804Z,52.7
2017-10-06T01:24:18.285Z,53.3
2017-10-06T01:25:19.726Z,52.9
2017-10-06T01:26:21.187Z,52.9
2017-10-06T01:27:23.316Z,53.3
2017-10-06T01:28:25.112Z,53.4
2017-10-06T01:29:26.882Z,53.3
2017-10-06T01:30:28.345Z,52.9
2017-10-06T01:31:30.478Z,52.8
2017-10-06T01:32:32.274Z,52.8
2017-10-06T01:33:34.044Z,52.8
2017-10-06T01:34:36.175Z,52.6
2017-10-06T01:35:37.972Z,52.7
2017-10-06T01:36:40.102Z,52.7
2017-10-06T01:37:41.565Z,52.7
2017-10-06T01:38:43.361Z,52.8
2017-10-06T01:39:45.533Z,52.8
2017-10-06T01:40:47.330Z,52.9
2017-10-06T01:41:49.102Z,52.8
2017-10-06T01:42:50.878Z,52.8
2017-10-06T01:43:53.025Z,52.7
2017-10-06T01:44:55.157Z,52.9
2017-10-06T01:45:56.952Z,52.8
2017-10-06T01:46:58.389Z,52.6
2017-10-06T01:47:59.838Z,52.6
2017-10-06T01:49:01.987Z,52.9
2017-10-06T01:50:04.105Z,53.1
2017-10-06T01:51:05.231Z,52.7
2017-10-06T01:52:06.352Z,52.7
2017-10-06T01:53:08.151Z,53.1
2017-10-06T01:54:10.277Z,52.6
2017-10-06T01:55:12.408Z,52.7
2017-10-06T01:56:14.231Z,52.7
2017-10-06T01:57:15.690Z,52.7
2017-10-06T01:58:17.130Z,52.7
2017-10-06T01:59:19.260Z,52.6
2017-10-06T02:00:20.698Z,52.6
2017-10-06T02:01:22.141Z,52.7
2017-10-06T02:02:23.269Z,52.9
2017-10-06T02:03:25.065Z,52.8
2017-10-06T02:04:26.862Z,53
2017-10-06T02:05:28.691Z,52.8
2017-10-06T02:06:30.824Z,52.7
2017-10-06T02:07:32.288Z,52.9
2017-10-06T02:08:34.082Z,52.8
2017-10-06T02:09:35.876Z,53.3
2017-10-06T02:10:37.671Z,53.4
2017-10-06T02:11:39.446Z,52.8
2017-10-06T02:12:40.585Z,52.8
2017-10-06T02:13:42.383Z,52.6
2017-10-06T02:14:44.178Z,52.7
2017-10-06T02:15:45.303Z,52.7
2017-10-06T02:16:47.073Z,52.8
2017-10-06T02:17:49.203Z,53.3
2017-10-06T02:18:51.331Z,53.3
2017-10-06T02:19:53.131Z,53
2017-10-06T02:20:54.924Z,52.6
2017-10-06T02:21:57.055Z,52.8
2017-10-06T02:22:58.517Z,52.6
2017-10-06T02:24:00.291Z,52.7
2017-10-06T02:25:02.086Z,52.7
2017-10-06T02:26:04.213Z,52.8
2017-10-06T02:27:05.338Z,53.4
2017-10-06T02:28:06.805Z,52.9
2017-10-06T02:29:08.240Z,52.8
2017-10-06T02:30:10.369Z,52.8
2017-10-06T02:31:12.192Z,52.7
2017-10-06T02:32:14.000Z,52.9
2017-10-06T02:33:15.771Z,52.6
2017-10-06T02:34:17.580Z,52.9
2017-10-06T02:35:19.365Z,52.8
2017-10-06T02:36:21.158Z,52.7
2017-10-06T02:37:22.953Z,53.2
2017-10-06T02:38:24.752Z,52.9
2017-10-06T02:39:26.549Z,52.8
2017-10-06T02:40:28.680Z,52.7
2017-10-06T02:41:30.474Z,52.8
2017-10-06T02:42:32.605Z,52.7
2017-10-06T02:43:34.378Z,52.6
2017-10-06T02:44:36.512Z,52.9
2017-10-06T02:45:38.285Z,53.4
2017-10-06T02:46:40.416Z,52.7
2017-10-06T02:47:42.211Z,53.3
2017-10-06T02:48:44.007Z,52.7
2017-10-06T02:49:46.136Z,53.3
2017-10-06T02:50:48.266Z,53.4
2017-10-06T02:51:49.372Z,52.6
2017-10-06T02:52:51.166Z,52.8
2017-10-06T02:53:52.962Z,52.8
2017-10-06T02:54:54.402Z,53.3
2017-10-06T02:55:55.876Z,52.8
2017-10-06T02:56:58.006Z,52.8
2017-10-06T02:58:00.150Z,52.5
2017-10-06T02:59:01.926Z,52.8
2017-10-06T03:00:03.363Z,52.8
2017-10-06T03:01:04.825Z,52.7
2017-10-06T03:02:06.630Z,52.5
2017-10-06T03:03:08.091Z,52.8
2017-10-06T03:04:10.220Z,52.5
2017-10-06T03:05:12.018Z,53.2
2017-10-06T03:06:14.148Z,53.1
2017-10-06T03:07:16.279Z,52.7
2017-10-06T03:08:18.078Z,52.6
2017-10-06T03:09:19.540Z,52.7
2017-10-06T03:10:21.671Z,52.3
2017-10-06T03:11:23.800Z,53.2
2017-10-06T03:12:25.594Z,52.8
2017-10-06T03:13:27.392Z,52.6
2017-10-06T03:14:28.494Z,52.5
2017-10-06T03:15:30.624Z,52.7
2017-10-06T03:16:32.754Z,52.5
2017-10-06T03:17:34.882Z,52.6
2017-10-06T03:18:37.012Z,52.6
2017-10-06T03:19:38.452Z,52.8
2017-10-06T03:20:39.583Z,52.7
2017-10-06T03:21:41.376Z,53.2
2017-10-06T03:22:43.507Z,52.8
2017-10-06T03:23:45.638Z,52.7
2017-10-06T03:24:47.768Z,52.4
2017-10-06T03:25:49.562Z,52.7
2017-10-06T03:26:51.356Z,52.5
2017-10-06T03:27:53.485Z,52.5
2017-10-06T03:28:54.588Z,52.7
2017-10-06T03:29:56.383Z,53.1
2017-10-06T03:30:58.514Z,52.5
2017-10-06T03:32:00.289Z,52.5
2017-10-06T03:33:01.752Z,52.5
2017-10-06T03:34:02.855Z,52.8
2017-10-06T03:35:04.315Z,52.7
2017-10-06T03:36:06.455Z,52.9
2017-10-06T03:37:08.582Z,52.7
2017-10-06T03:38:10.370Z,52.8
2017-10-06T03:39:11.809Z,53
2017-10-06T03:40:13.603Z,52.7
2017-10-06T03:41:15.751Z,52.5
2017-10-06T03:42:17.189Z,52.7
2017-10-06T03:43:18.627Z,52.8
2017-10-06T03:44:19.732Z,52.7
2017-10-06T03:45:20.858Z,53.2
2017-10-06T03:46:22.296Z,52.9
2017-10-06T03:47:23.064Z,52.8
2017-10-06T03:48:25.193Z,52.8
2017-10-06T03:49:26.987Z,52.7
2017-10-06T03:50:28.092Z,52.7
2017-10-06T03:51:29.864Z,53
2017-10-06T03:52:31.660Z,52.8
2017-10-06T03:53:33.457Z,52.7
2017-10-06T03:54:35.270Z,52.8
2017-10-06T03:55:37.402Z,52.7
2017-10-06T03:56:38.840Z,52.5
2017-10-06T03:57:40.636Z,52.7
2017-10-06T03:58:42.770Z,52.9
2017-10-06T03:59:44.269Z,52.8
2017-10-06T04:00:46.045Z,52.8
2017-10-06T04:01:47.841Z,52.8
2017-10-06T04:02:49.636Z,52.6
2017-10-06T04:03:51.100Z,52.8
2017-10-06T04:04:53.234Z,52.5
2017-10-06T04:05:54.691Z,52.5
2017-10-06T04:06:56.484Z,52.6
2017-10-06T04:07:58.664Z,52.7
2017-10-06T04:09:00.103Z,52.7
2017-10-06T04:10:01.898Z,52.7
2017-10-06T04:11:03.696Z,52.8
2017-10-06T04:12:04.467Z,52.7
2017-10-06T04:13:05.241Z,52.5
2017-10-06T04:14:07.369Z,52.8
2017-10-06T04:15:09.138Z,52.8
2017-10-06T04:16:11.268Z,52.8
2017-10-06T04:17:12.708Z,52.7
2017-10-06T04:18:14.838Z,52.6
2017-10-06T04:19:16.968Z,53.2
2017-10-06T04:20:18.767Z,52.8
2017-10-06T04:21:20.226Z,52.8
2017-10-06T04:22:22.056Z,52.8
2017-10-06T04:23:23.831Z,52.6
2017-10-06T04:24:25.961Z,52.6
2017-10-06T04:25:27.757Z,52.7
2017-10-06T04:26:29.553Z,52.8
2017-10-06T04:27:31.684Z,52.6
2017-10-06T04:28:33.814Z,53.1
2017-10-06T04:29:35.253Z,52.9
2017-10-06T04:30:37.053Z,53.2
2017-10-06T04:31:38.847Z,52.8
2017-10-06T04:32:40.979Z,52.4
2017-10-06T04:33:43.108Z,52.6
2017-10-06T04:34:44.927Z,52.6
2017-10-06T04:35:46.751Z,52.6
2017-10-06T04:36:48.571Z,52.9
2017-10-06T04:37:50.012Z,52.7
2017-10-06T04:38:51.478Z,52.5
2017-10-06T04:39:52.949Z,52.6
2017-10-06T04:40:55.091Z,52.8
2017-10-06T04:41:57.222Z,53
2017-10-06T04:42:58.684Z,53.1
2017-10-06T04:44:00.480Z,52.8
2017-10-06T04:45:02.256Z,52.6
2017-10-06T04:46:03.694Z,52.8
2017-10-06T04:47:05.466Z,52.9
2017-10-06T04:48:07.261Z,52.4
2017-10-06T04:49:09.057Z,53
2017-10-06T04:50:10.854Z,52.6
2017-10-06T04:51:12.649Z,52.8
2017-10-06T04:52:14.443Z,52.7
2017-10-06T04:53:16.237Z,52.8
2017-10-06T04:54:18.033Z,53
2017-10-06T04:55:19.827Z,52.7
2017-10-06T04:56:20.934Z,52.8
2017-10-06T04:57:22.730Z,52.5
2017-10-06T04:58:24.509Z,52.5
2017-10-06T04:59:25.949Z,52.5
2017-10-06T05:00:28.086Z,52.7
2017-10-06T05:01:29.527Z,52.7
2017-10-06T05:02:30.976Z,52.3
2017-10-06T05:03:32.080Z,52.8
2017-10-06T05:04:33.853Z,52.8
2017-10-06T05:05:36.005Z,52.4
2017-10-06T05:06:37.779Z,52.6
2017-10-06T05:07:39.238Z,52.5
2017-10-06T05:08:41.367Z,52.8
2017-10-06T05:09:43.169Z,52.5
2017-10-06T05:10:44.967Z,52.4
2017-10-06T05:11:46.093Z,52.5
2017-10-06T05:12:47.552Z,52.6
2017-10-06T05:13:49.688Z,52.7
2017-10-06T05:14:51.483Z,52.5
2017-10-06T05:15:53.615Z,52.5
2017-10-06T05:16:55.747Z,52.5
2017-10-06T05:17:57.877Z,52.5
2017-10-06T05:18:59.367Z,52.5
2017-10-06T05:20:01.144Z,52.5
2017-10-06T05:21:02.940Z,52.4
2017-10-06T05:22:04.400Z,52.3
2017-10-06T05:23:05.862Z,52.7
2017-10-06T05:24:07.660Z,52.3
2017-10-06T05:25:09.455Z,52.3
2017-10-06T05:26:10.893Z,52.5
2017-10-06T05:27:12.353Z,52.5
2017-10-06T05:28:14.490Z,52.3
2017-10-06T05:29:15.614Z,52.9
2017-10-06T05:30:17.409Z,52.8
2017-10-06T05:31:19.543Z,52.4
2017-10-06T05:32:21.338Z,52.4
2017-10-06T05:33:22.776Z,52.3
2017-10-06T05:34:24.571Z,52.4
2017-10-06T05:35:26.032Z,52.4
2017-10-06T05:36:28.162Z,52.4
2017-10-06T05:37:29.957Z,52.4
2017-10-06T05:38:32.102Z,52.2
2017-10-06T05:39:34.235Z,52.6
2017-10-06T05:40:36.362Z,52.3
2017-10-06T05:41:38.159Z,52.4
2017-10-06T05:42:39.956Z,52.5
2017-10-06T05:43:41.415Z,52.4
2017-10-06T05:44:43.263Z,52.9
2017-10-06T05:45:45.037Z,52.6
2017-10-06T05:46:46.830Z,52.4
2017-10-06T05:47:48.632Z,52.4
2017-10-06T05:48:50.406Z,52.4
2017-10-06T05:49:52.200Z,52.4
2017-10-06T05:50:53.311Z,52.7
2017-10-06T05:51:55.088Z,52.7
2017-10-06T05:52:56.888Z,52.5
2017-10-06T05:53:57.990Z,52.8
2017-10-06T05:54:59.785Z,52.4
2017-10-06T05:56:01.583Z,52.4
2017-10-06T05:57:03.378Z,52.4
2017-10-06T05:58:05.154Z,52.3
2017-10-06T05:59:06.949Z,52.5
2017-10-06T06:00:08.385Z,52.4
2017-10-06T06:01:09.825Z,52.4
2017-10-06T06:02:11.618Z,52.2
2017-10-06T06:03:13.394Z,52.4
2017-10-06T06:04:14.832Z,52.4
2017-10-06T06:05:16.987Z,52.3
2017-10-06T06:06:19.116Z,52.2
2017-10-06T06:07:20.895Z,52.2
2017-10-06T06:08:23.026Z,52.5
2017-10-06T06:09:24.820Z,52.3
2017-10-06T06:10:26.953Z,52.3
2017-10-06T06:11:28.725Z,52.8
2017-10-06T06:12:30.525Z,52.5
2017-10-06T06:13:31.963Z,52.4
2017-10-06T06:14:34.093Z,52.4
2017-10-06T06:15:36.234Z,52.4
2017-10-06T06:16:38.364Z,52.5
2017-10-06T06:17:40.139Z,52.3
2017-10-06T06:18:41.583Z,52.3
2017-10-06T06:19:42.692Z,52.2
2017-10-06T06:20:44.159Z,52.2
2017-10-06T06:21:45.956Z,52.3
2017-10-06T06:22:47.396Z,52.5
2017-10-06T06:23:49.527Z,52.4
2017-10-06T06:24:51.325Z,52.2
2017-10-06T06:25:53.124Z,52.8
2017-10-06T06:26:55.256Z,52.5
2017-10-06T06:27:56.719Z,52.4
2017-10-06T06:28:58.495Z,52.3
2017-10-06T06:29:59.941Z,52.3
2017-10-06T06:31:01.380Z,52.3
2017-10-06T06:32:03.515Z,52.3
2017-10-06T06:33:05.290Z,52.4
2017-10-06T06:34:07.089Z,52.3
2017-10-06T06:35:08.885Z,52.5
2017-10-06T06:36:11.014Z,52.3
2017-10-06T06:37:13.151Z,52.5
2017-10-06T06:38:14.591Z,52.2
2017-10-06T06:39:16.722Z,52.6
2017-10-06T06:40:18.854Z,52.4
2017-10-06T06:41:20.290Z,52.7
2017-10-06T06:42:21.752Z,52.2
2017-10-06T06:43:23.216Z,52.3
2017-10-06T06:44:24.676Z,52.5
2017-10-06T06:45:26.471Z,52.3
2017-10-06T06:46:28.605Z,52.5
2017-10-06T06:47:30.038Z,52.2
2017-10-06T06:48:32.166Z,52.3
2017-10-06T06:49:33.965Z,52.4
2017-10-06T06:50:35.761Z,52.3
2017-10-06T06:51:37.564Z,52.9
2017-10-06T06:52:39.005Z,52.3
2017-10-06T06:53:40.439Z,52.6
2017-10-06T06:54:41.882Z,52.2
2017-10-06T06:55:43.344Z,52.4
2017-10-06T06:56:44.786Z,52.4
2017-10-06T06:57:46.225Z,52.4
2017-10-06T06:58:47.693Z,52.4
2017-10-06T06:59:49.490Z,52.4
2017-10-06T07:00:51.294Z,52.3
2017-10-06T07:01:53.118Z,52.3
2017-10-06T07:02:55.252Z,52.4
2017-10-06T07:03:57.382Z,52.3
2017-10-06T07:04:59.182Z,52.4
2017-10-06T07:06:00.308Z,52.3
2017-10-06T07:07:02.443Z,52.9
2017-10-06T07:08:04.237Z,52.5
2017-10-06T07:09:06.369Z,52.7
2017-10-06T07:10:07.834Z,52.4
2017-10-06T07:11:09.280Z,52.6
2017-10-06T07:12:10.049Z,52.8
2017-10-06T07:13:11.847Z,52.5
2017-10-06T07:14:13.285Z,52.5
2017-10-06T07:15:15.065Z,52.5
2017-10-06T07:16:16.530Z,52.2
2017-10-06T07:17:18.662Z,52.6
2017-10-06T07:18:20.458Z,52.5
2017-10-06T07:19:22.594Z,52.5
2017-10-06T07:20:24.057Z,52.3
2017-10-06T07:21:26.186Z,52.6
2017-10-06T07:22:28.322Z,52.9
2017-10-06T07:23:29.757Z,52.6
2017-10-06T07:24:31.529Z,52.2
2017-10-06T07:25:33.660Z,52.5
2017-10-06T07:26:35.098Z,52.5
2017-10-06T07:27:36.874Z,52.5
2017-10-06T07:28:38.668Z,52.7
2017-10-06T07:29:40.107Z,52.3
2017-10-06T07:30:41.209Z,52.3
2017-10-06T07:31:43.341Z,52.5
2017-10-06T07:32:45.136Z,52.1
2017-10-06T07:33:46.918Z,52.1
2017-10-06T07:34:48.351Z,52
2017-10-06T07:35:50.480Z,52.3
2017-10-06T07:36:52.279Z,52.1
2017-10-06T07:37:54.411Z,51.7
2017-10-06T07:38:55.853Z,51.8
2017-10-06T07:39:57.650Z,52.5
2017-10-06T07:40:58.758Z,51.9
2017-10-06T07:42:00.556Z,51.8
2017-10-06T07:43:01.682Z,51.8
2017-10-06T07:44:03.482Z,51.8
2017-10-06T07:45:05.254Z,51.8
2017-10-06T07:46:07.055Z,52
2017-10-06T07:47:08.515Z,51.7
2017-10-06T07:48:09.975Z,51.6
2017-10-06T07:49:11.438Z,52.2
2017-10-06T07:50:13.571Z,51.7
2017-10-06T07:51:15.036Z,51.8
2017-10-06T07:52:16.831Z,51.8
2017-10-06T07:53:18.269Z,51.9
2017-10-06T07:54:19.396Z,51.6
2017-10-06T07:55:21.527Z,51.6
2017-10-06T07:56:22.970Z,52
2017-10-06T07:57:24.769Z,51.7
2017-10-06T07:58:25.902Z,51.9
2017-10-06T07:59:28.026Z,52
2017-10-06T08:00:29.825Z,51.8
2017-10-06T08:01:31.625Z,52
2017-10-06T08:02:33.401Z,51.9
2017-10-06T08:03:35.199Z,52
2017-10-06T08:04:36.997Z,51.9
2017-10-06T08:05:39.125Z,51.9
2017-10-06T08:06:40.921Z,51.7
2017-10-06T08:07:43.071Z,51.7
2017-10-06T08:08:44.959Z,52.3
2017-10-06T08:09:46.422Z,51.7
2017-10-06T08:10:48.218Z,51.6
2017-10-06T08:11:49.319Z,51.7
2017-10-06T08:12:51.115Z,51.9
2017-10-06T08:13:53.248Z,52
2017-10-06T08:14:54.712Z,52.3
2017-10-06T08:15:56.507Z,51.7
2017-10-06T08:16:58.304Z,51.8
2017-10-06T08:18:00.100Z,51.7
2017-10-06T08:19:01.896Z,51.7
2017-10-06T08:20:03.700Z,51.8
2017-10-06T08:21:05.493Z,52.3
2017-10-06T08:22:07.292Z,52.2
2017-10-06T08:23:08.735Z,51.6
2017-10-06T08:24:10.864Z,51.7
2017-10-06T08:25:12.663Z,52.3
2017-10-06T08:26:14.791Z,51.7
2017-10-06T08:27:15.897Z,51.8
2017-10-06T08:28:17.001Z,52
2017-10-06T08:29:18.465Z,51.9
2017-10-06T08:30:20.599Z,51.7
2017-10-06T08:31:22.059Z,52.4
2017-10-06T08:32:22.834Z,51.9
2017-10-06T08:33:24.272Z,52.4
2017-10-06T08:34:26.405Z,51.8
2017-10-06T08:35:27.874Z,51.8
2017-10-06T08:36:30.007Z,51.8
2017-10-06T08:37:31.804Z,51.8
2017-10-06T08:38:33.601Z,51.8
2017-10-06T08:39:35.832Z,51.8
2017-10-06T08:40:37.608Z,51.7
2017-10-06T08:41:38.736Z,51.7
2017-10-06T08:42:40.531Z,51.9
2017-10-06T08:43:42.011Z,51.8
2017-10-06T08:44:43.804Z,51.6
2017-10-06T08:45:45.602Z,51.6
2017-10-06T08:46:47.049Z,51.7
2017-10-06T08:47:49.174Z,51.6
2017-10-06T08:48:50.641Z,51.6
2017-10-06T08:49:52.772Z,51.6
2017-10-06T08:50:54.572Z,51.5
2017-10-06T08:51:56.366Z,51.4
2017-10-06T08:52:58.501Z,51.6
2017-10-06T08:54:00.632Z,51.6
2017-10-06T08:55:02.430Z,51.6
2017-10-06T08:56:04.227Z,51.6
2017-10-06T08:57:06.020Z,51.6
2017-10-06T08:58:07.462Z,51.6
2017-10-06T08:59:08.902Z,51.8
2017-10-06T09:00:11.033Z,51.6
2017-10-06T09:01:12.812Z,51.6
2017-10-06T09:02:14.610Z,51.6
2017-10-06T09:03:16.738Z,51.6
2017-10-06T09:04:18.536Z,52.1
2017-10-06T09:05:20.667Z,52
2017-10-06T09:06:22.466Z,51.4
2017-10-06T09:07:23.564Z,51.6
2017-10-06T09:08:25.364Z,51.5
2017-10-06T09:09:26.806Z,51.6
2017-10-06T09:10:29.036Z,51.6
2017-10-06T09:11:30.833Z,51.5
2017-10-06T09:12:32.277Z,51.6
2017-10-06T09:13:34.103Z,51.8
2017-10-06T09:14:35.523Z,51.6
2017-10-06T09:15:36.984Z,52.1
2017-10-06T09:16:38.090Z,51.6
2017-10-06T09:17:39.551Z,51.5
2017-10-06T09:18:41.683Z,51.7
2017-10-06T09:19:42.815Z,51.7
2017-10-06T09:20:44.613Z,51.4
2017-10-06T09:21:45.741Z,51.6
2017-10-06T09:22:47.542Z,52.1
2017-10-06T09:23:49.673Z,51.5
2017-10-06T09:24:51.809Z,51.7
2017-10-06T09:25:53.944Z,51.5
2017-10-06T09:26:55.383Z,51.8
2017-10-06T09:27:57.529Z,51.6
2017-10-06T09:28:59.659Z,51.6
2017-10-06T09:30:01.791Z,52.1
2017-10-06T09:31:03.590Z,51.7
2017-10-06T09:32:05.718Z,51.6
2017-10-06T09:33:07.179Z,51.6
2017-10-06T09:34:08.975Z,51.5
2017-10-06T09:35:10.752Z,51.7
2017-10-06T09:36:12.554Z,51.6
2017-10-06T09:37:14.011Z,51.6
2017-10-06T09:38:15.118Z,51.4
2017-10-06T09:39:16.918Z,51.5
2017-10-06T09:40:19.046Z,51.5
2017-10-06T09:41:20.511Z,51.5
2017-10-06T09:42:21.975Z,51.6
2017-10-06T09:43:23.422Z,51.4
2017-10-06T09:44:25.557Z,51.6
2017-10-06T09:45:27.354Z,51.4
2017-10-06T09:46:29.491Z,51.7
2017-10-06T09:47:31.624Z,51.6
2017-10-06T09:48:33.065Z,51.6
2017-10-06T09:49:34.174Z,51.6
2017-10-06T09:50:35.615Z,51.4
2017-10-06T09:51:37.413Z,51.5
2017-10-06T09:52:39.189Z,51.6
2017-10-06T09:53:40.987Z,51.7
2017-10-06T09:54:43.119Z,51.2
2017-10-06T09:55:45.271Z,51.7
2017-10-06T09:56:47.066Z,51.2
2017-10-06T09:57:48.864Z,51.6
2017-10-06T09:58:50.325Z,51.2
2017-10-06T09:59:51.459Z,51.7
2017-10-06T10:00:53.255Z,51.2
2017-10-06T10:01:55.053Z,51.2
2017-10-06T10:02:56.850Z,51.5
2017-10-06T10:03:58.982Z,51.1
2017-10-06T10:05:00.781Z,51.4
2017-10-06T10:06:02.247Z,51.2
2017-10-06T10:07:04.378Z,51.2
2017-10-06T10:08:06.157Z,51.1
2017-10-06T10:09:07.601Z,51.2
2017-10-06T10:10:08.705Z,51
2017-10-06T10:11:10.475Z,50.9
2017-10-06T10:12:12.609Z,51
2017-10-06T10:13:14.383Z,50.9
2017-10-06T10:14:16.517Z,50.8
2017-10-06T10:15:18.320Z,50.9
2017-10-06T10:16:20.092Z,51
2017-10-06T10:17:22.224Z,51.1
2017-10-06T10:18:24.002Z,51.6
2017-10-06T10:19:25.467Z,51.1
2017-10-06T10:20:27.276Z,51.2
2017-10-06T10:21:29.462Z,51.2
2017-10-06T10:22:30.586Z,51.2
2017-10-06T10:23:32.730Z,51.3
2017-10-06T10:24:34.529Z,51.2
2017-10-06T10:25:36.659Z,51.6
2017-10-06T10:26:37.785Z,51.4
2017-10-06T10:27:39.584Z,51.5
2017-10-06T10:28:41.044Z,51.5
2017-10-06T10:29:43.176Z,51.4
2017-10-06T10:30:44.286Z,51.7
2017-10-06T10:31:45.416Z,51.5
2017-10-06T10:32:46.854Z,51.5
2017-10-06T10:33:48.297Z,51.4
2017-10-06T10:34:50.120Z,51.8
2017-10-06T10:35:51.896Z,52
2017-10-06T10:36:54.030Z,51.6
2017-10-06T10:37:55.470Z,51.6
2017-10-06T10:38:56.575Z,51.6
2017-10-06T10:39:57.679Z,51.6
2017-10-06T10:40:59.119Z,51.7
2017-10-06T10:42:00.583Z,51.6
2017-10-06T10:43:02.358Z,51.5
2017-10-06T10:44:03.824Z,51.4
2017-10-06T10:45:05.956Z,51.5
2017-10-06T10:46:07.758Z,51.4
2017-10-06T10:47:09.297Z,51.5
2017-10-06T10:48:11.071Z,51.2
2017-10-06T10:49:12.511Z,51.2
2017-10-06T10:50:14.308Z,51.2
2017-10-06T10:51:15.774Z,51.1
2017-10-06T10:52:17.574Z,51.1
2017-10-06T10:53:19.711Z,51
2017-10-06T10:54:21.172Z,50.9
2017-10-06T10:55:22.973Z,51
2017-10-06T10:56:24.427Z,51
2017-10-06T10:57:25.882Z,51
2017-10-06T10:58:27.681Z,50.9
2017-10-06T10:59:29.816Z,51.2
2017-10-06T11:00:31.259Z,50.9
2017-10-06T11:01:33.397Z,50.8
2017-10-06T11:02:34.861Z,50.9
2017-10-06T11:03:36.657Z,51
2017-10-06T11:04:38.433Z,51.6
2017-10-06T11:05:40.232Z,51.2
2017-10-06T11:06:42.001Z,51.6
2017-10-06T11:07:43.780Z,51.2
2017-10-06T11:08:45.575Z,51.2
2017-10-06T11:09:47.355Z,51.3
2017-10-06T11:10:49.129Z,51.2
2017-10-06T11:11:50.237Z,51.3
2017-10-06T11:12:52.367Z,51.7
2017-10-06T11:13:53.808Z,51.7
2017-10-06T11:14:55.938Z,51.3
2017-10-06T11:15:58.067Z,51.5
2017-10-06T11:16:59.870Z,51.5
2017-10-06T11:18:01.669Z,51.6
2017-10-06T11:19:03.799Z,51.5
2017-10-06T11:20:04.906Z,51.5
2017-10-06T11:21:06.705Z,51.6
2017-10-06T11:22:08.147Z,51.4
2017-10-06T11:23:09.944Z,52.2
2017-10-06T11:24:12.080Z,51.9
2017-10-06T11:25:14.213Z,52.2
2017-10-06T11:26:15.990Z,51.5
2017-10-06T11:27:17.451Z,51.5
2017-10-06T11:28:19.223Z,51.8
2017-10-06T11:29:21.025Z,51.7
2017-10-06T11:30:22.803Z,51.7
2017-10-06T11:31:24.937Z,51.5
2017-10-06T11:32:26.736Z,51.7
2017-10-06T11:33:28.530Z,52.1
2017-10-06T11:34:30.326Z,51.5
2017-10-06T11:35:32.122Z,51.5
2017-10-06T11:36:34.251Z,51.7
2017-10-06T11:37:35.712Z,52
2017-10-06T11:38:37.615Z,51.6
2017-10-06T11:39:38.721Z,51.8
2017-10-06T11:40:40.518Z,51.9
2017-10-06T11:41:41.283Z,51.7
2017-10-06T11:42:42.417Z,52.3
2017-10-06T11:43:44.213Z,51.7
2017-10-06T11:44:45.318Z,51.8
2017-10-06T11:45:46.417Z,51.7
2017-10-06T11:46:47.859Z,51.8
2017-10-06T11:47:48.630Z,51.8
2017-10-06T11:48:50.758Z,51.6
2017-10-06T11:49:52.198Z,51.6
2017-10-06T11:50:54.329Z,52.1
2017-10-06T11:51:55.787Z,51.8
2017-10-06T11:52:57.918Z,51.8
2017-10-06T11:53:59.381Z,51.8
2017-10-06T11:55:01.511Z,51.7
2017-10-06T11:56:03.647Z,51.6
2017-10-06T11:57:05.778Z,51.6
2017-10-06T11:58:07.236Z,51.6
2017-10-06T11:59:08.701Z,51.6
2017-10-06T12:00:10.498Z,51.8
2017-10-06T12:01:12.293Z,51.6
2017-10-06T12:02:13.758Z,52.1
2017-10-06T12:03:15.889Z,51.6
2017-10-06T12:04:17.683Z,51.5
2017-10-06T12:05:19.482Z,51.6
2017-10-06T12:06:21.284Z,51.6
2017-10-06T12:07:23.414Z,51.9
2017-10-06T12:08:24.858Z,51.6
2017-10-06T12:09:25.629Z,51.7
2017-10-06T12:10:27.423Z,51.9
2017-10-06T12:11:29.222Z,51.6
2017-10-06T12:12:31.022Z,51.5
2017-10-06T12:13:32.818Z,51.5
2017-10-06T12:14:34.959Z,51.6
2017-10-06T12:15:37.084Z,51.4
2017-10-06T12:16:38.523Z,51.8
2017-10-06T12:17:40.324Z,51.6
2017-10-06T12:18:42.454Z,51.9
2017-10-06T12:19:44.246Z,51.5
2017-10-06T12:20:45.686Z,51.5
2017-10-06T12:21:47.462Z,51.6
2017-10-06T12:22:48.912Z,51.8
2017-10-06T12:23:51.044Z,51.5
2017-10-06T12:24:53.175Z,51.7
2017-10-06T12:25:54.972Z,51.7
2017-10-06T12:26:56.769Z,51.4
2017-10-06T12:27:58.906Z,51.4
2017-10-06T12:29:01.044Z,51.4
2017-10-06T12:30:02.842Z,51.6
2017-10-06T12:31:03.951Z,51.5
2017-10-06T12:32:05.749Z,51.5
2017-10-06T12:33:07.524Z,51.8
2017-10-06T12:34:09.663Z,51.9
2017-10-06T12:35:11.121Z,51.6
2017-10-06T12:36:12.921Z,52
2017-10-06T12:37:14.027Z,51.9
2017-10-06T12:38:15.142Z,51.5
2017-10-06T12:39:16.938Z,51.5
2017-10-06T12:40:18.399Z,51.5
2017-10-06T12:41:19.841Z,51.6
2017-10-06T12:42:21.619Z,51.9
2017-10-06T12:43:23.420Z,51.6
2017-10-06T12:44:25.197Z,51.6
2017-10-06T12:45:27.328Z,51.8
2017-10-06T12:46:28.791Z,51.7
2017-10-06T12:47:30.586Z,51.7
2017-10-06T12:48:31.702Z,51.5
2017-10-06T12:49:33.139Z,51.6
2017-10-06T12:50:34.939Z,51.5
2017-10-06T12:51:36.744Z,51.3
2017-10-06T12:52:37.849Z,51.6
2017-10-06T12:53:39.292Z,51.3
2017-10-06T12:54:40.741Z,51.2
2017-10-06T12:55:42.873Z,51.2
2017-10-06T12:56:44.669Z,51.6
2017-10-06T12:57:45.752Z,51.2
2017-10-06T12:58:47.532Z,51.5
2017-10-06T12:59:49.331Z,51.2
2017-10-06T13:00:50.775Z,51.2
2017-10-06T13:01:52.546Z,51.6
2017-10-06T13:02:54.344Z,51.2
2017-10-06T13:03:56.479Z,51.3
2017-10-06T13:04:58.250Z,51.3
2017-10-06T13:06:00.050Z,51.4
2017-10-06T13:07:01.491Z,51.3
2017-10-06T13:08:02.934Z,51.3
2017-10-06T13:09:05.061Z,51.2
2017-10-06T13:10:06.524Z,51.8
2017-10-06T13:11:08.657Z,51.3
2017-10-06T13:12:09.765Z,51.2
2017-10-06T13:13:11.898Z,51.2
2017-10-06T13:14:13.342Z,51.7
2017-10-06T13:15:14.808Z,51.7
2017-10-06T13:16:16.937Z,51.7
2017-10-06T13:17:18.739Z,51.2
2017-10-06T13:18:20.533Z,51.4
2017-10-06T13:19:21.639Z,51.3
2017-10-06T13:20:23.415Z,51.4
2017-10-06T13:21:25.210Z,51.6
2017-10-06T13:22:27.013Z,51.5
2017-10-06T13:23:28.809Z,51.5
2017-10-06T13:24:30.943Z,51.6
2017-10-06T13:25:32.407Z,51.7
2017-10-06T13:26:34.592Z,51.6
2017-10-06T13:27:36.031Z,51.6
2017-10-06T13:28:37.832Z,51.5
2017-10-06T13:29:39.295Z,51.7
2017-10-06T13:30:41.092Z,51.8
2017-10-06T13:31:42.197Z,51.7
2017-10-06T13:32:43.990Z,51.7
2017-10-06T13:33:45.788Z,51.5
2017-10-06T13:34:46.922Z,51.6
2017-10-06T13:35:48.387Z,51.5
2017-10-06T13:36:50.182Z,51.6
2017-10-06T13:37:51.958Z,51.8
2017-10-06T13:38:54.093Z,51.5
2017-10-06T13:39:55.891Z,51.5
2017-10-06T13:40:56.997Z,51.5
2017-10-06T13:41:58.099Z,51.7
2017-10-06T13:42:59.566Z,51.4
2017-10-06T13:44:01.700Z,51.4
2017-10-06T13:45:03.143Z,51.6
2017-10-06T13:46:04.581Z,51.4